Time;durP1;ratioP1;P1;durP2;ratioP2;P2;SDS_P1;SDS_P2;PMS_P1;PMS_P2;Temp;Humidity;BMP_temperature;BMP_pressure;BME280_temperature;BME280_humidity;BME280_pressure;Samples;Min_cycle;Max_cycle;Signal;HPM_P1;HPM_P2
2022/03/10 00:02:42;;;;;;;1.27;1.00;;;19.10;46.30;;;;;;6196902;28;20026;-69
2022/03/10 00:05:43;;;;;;;3.72;1.25;;;19.10;46.40;;;;;;6197208;28;20474;-69
2022/03/10 00:08:44;;;;;;;1.77;1.10;;;19.10;46.40;;;;;;6196586;28;20041;-69
2022/03/10 00:11:46;;;;;;;1.30;0.90;;;19.10;46.40;;;;;;6196622;28;20027;-69
2022/03/10 00:14:47;;;;;;;1.48;0.95;;;19.10;46.40;;;;;;6196576;28;20052;-69
2022/03/10 00:17:47;;;;;;;1.30;0.90;;;19.10;46.40;;;;;;6196570;28;20026;-71
2022/03/10 00:20:48;;;;;;;2.33;1.15;;;19.10;46.40;;;;;;6196489;28;20058;-69
2022/03/10 00:23:48;;;;;;;2.35;1.38;;;19.10;46.40;;;;;;6196713;28;20492;-69
2022/03/10 00:26:49;;;;;;;1.50;1.10;;;19.10;46.40;;;;;;6196107;28;20113;-69
2022/03/10 00:29:50;;;;;;;1.77;1.15;;;19.10;46.40;;;;;;6196270;28;20034;-69
2022/03/10 00:32:52;;;;;;;1.92;1.10;;;19.10;46.40;;;;;;6196243;28;20109;-69
2022/03/10 00:35:53;;;;;;;1.52;1.00;;;19.10;47.10;;;;;;6196231;28;20549;-69
2022/03/10 00:38:54;;;;;;;1.55;1.15;;;19.10;46.40;;;;;;6195451;28;20091;-69
2022/03/10 00:41:54;;;;;;;1.77;1.10;;;19.10;46.40;;;;;;6195899;28;20030;-69
2022/03/10 00:44:55;;;;;;;2.40;1.30;;;19.10;46.40;;;;;;6196096;28;20061;-69
2022/03/10 00:47:55;;;;;;;1.30;1.05;;;19.10;46.40;;;;;;6195484;28;20027;-69
2022/03/10 00:50:56;;;;;;;1.90;1.25;;;19.10;46.40;;;;;;6195745;28;20143;-69
2022/03/10 00:53:56;;;;;;;1.30;1.00;;;19.10;46.40;;;;;;6196141;28;20031;-69
2022/03/10 00:56:57;;;;;;;1.45;0.98;;;19.00;46.40;;;;;;6195916;28;20485;-69
2022/03/10 00:59:57;;;;;;;1.75;1.30;;;19.10;46.40;;;;;;6195862;28;20037;-69
2022/03/10 01:02:58;;;;;;;1.77;1.08;;;19.10;46.40;;;;;;6194318;28;20298;-69
2022/03/10 01:05:58;;;;;;;1.73;1.25;;;19.10;46.40;;;;;;6199625;28;20026;-69
2022/03/10 01:08:59;;;;;;;5.43;1.20;;;19.00;46.40;;;;;;6195413;28;20031;-69
2022/03/10 01:11:59;;;;;;;1.20;1.00;;;19.00;46.40;;;;;;6195216;28;20064;-69
2022/03/10 01:15:01;;;;;;;1.92;1.27;;;19.00;46.40;;;;;;6195386;28;20029;-69
2022/03/10 01:18:01;;;;;;;1.15;0.98;;;19.10;46.40;;;;;;6195256;28;20053;-69
2022/03/10 01:21:02;;;;;;;1.50;1.15;;;19.00;46.30;;;;;;6195229;28;20034;-69
2022/03/10 01:24:03;;;;;;;2.03;1.20;;;19.10;46.40;;;;;;6194822;28;20038;-69
2022/03/10 01:27:03;;;;;;;1.70;1.30;;;19.00;46.40;;;;;;6194455;28;20046;-70
2022/03/10 01:30:06;;;;;;;2.10;1.30;;;19.10;47.10;;;;;;6194596;28;20026;-69
2022/03/10 01:33:06;;;;;;;2.17;1.20;;;19.10;46.50;;;;;;6194782;28;20056;-69
2022/03/10 01:36:07;;;;;;;2.58;1.40;;;19.10;46.40;;;;;;6195080;28;20029;-69
2022/03/10 01:39:08;;;;;;;1.40;1.10;;;19.00;46.40;;;;;;6194352;28;20063;-69
2022/03/10 01:42:08;;;;;;;2.10;1.48;;;19.10;46.40;;;;;;6194654;28;20022;-69
2022/03/10 01:45:10;;;;;;;1.92;1.10;;;19.00;46.40;;;;;;6194735;28;20085;-69
2022/03/10 01:48:11;;;;;;;1.73;1.13;;;19.10;46.40;;;;;;6195069;28;20022;-69
2022/03/10 01:51:12;;;;;;;2.03;1.33;;;19.00;46.40;;;;;;6194801;28;20394;-69
2022/03/10 01:54:12;;;;;;;1.73;1.05;;;19.10;46.40;;;;;;6194986;28;20033;-69
2022/03/10 01:57:14;;;;;;;1.50;1.10;;;19.00;46.40;;;;;;6194585;28;20026;-69
2022/03/10 02:00:16;;;;;;;1.67;1.20;;;19.10;46.50;;;;;;6194767;28;20019;-69
2022/03/10 02:03:17;;;;;;;1.85;1.23;;;19.00;46.40;;;;;;6194343;28;20030;-69
2022/03/10 02:06:17;;;;;;;2.30;1.13;;;19.00;46.40;;;;;;6194613;28;20077;-69
2022/03/10 02:12:37;;;;;;;1.75;1.20;;;19.00;46.40;;;;;;6194618;28;20050;-69
2022/03/10 02:18:57;;;;;;;1.40;1.20;;;19.00;46.40;;;;;;6194408;28;20027;-69
2022/03/10 02:22:04;;;;;;;1.92;1.23;;;19.00;46.40;;;;;;6193837;28;20069;-69
2022/03/10 02:25:07;;;;;;;1.45;1.08;;;19.00;46.40;;;;;;6198929;28;20061;-69
2022/03/10 02:28:08;;;;;;;2.25;1.40;;;19.00;46.40;;;;;;6201466;28;20030;-69
2022/03/10 02:31:09;;;;;;;1.50;1.13;;;19.00;46.40;;;;;;6199104;28;20029;-69
2022/03/10 02:34:10;;;;;;;1.30;1.20;;;19.00;46.40;;;;;;6199080;28;20653;-69
2022/03/10 02:37:11;;;;;;;1.02;0.93;;;19.00;46.40;;;;;;6199072;28;20068;-70
2022/03/10 02:40:12;;;;;;;2.03;1.40;;;19.00;46.40;;;;;;6198932;28;20081;-69
2022/03/10 02:43:13;;;;;;;2.33;1.30;;;19.00;46.40;;;;;;6198620;28;20388;-69
2022/03/10 02:46:13;;;;;;;1.67;1.35;;;19.00;46.40;;;;;;6198749;28;20031;-69
2022/03/10 02:49:14;;;;;;;1.90;1.30;;;19.00;46.40;;;;;;6198915;28;20034;-69
2022/03/10 02:52:15;;;;;;;1.70;1.35;;;19.00;46.40;;;;;;6197937;28;20512;-69
2022/03/10 02:55:15;;;;;;;1.88;1.40;;;19.00;46.40;;;;;;6198679;28;20049;-69
2022/03/10 02:58:16;;;;;;;2.17;1.20;;;19.00;46.40;;;;;;6198362;28;20027;-69
2022/03/10 03:01:16;;;;;;;1.80;1.30;;;19.00;46.40;;;;;;6198440;28;20065;-69
2022/03/10 03:04:17;;;;;;;2.03;1.23;;;19.00;46.40;;;;;;6196964;28;20493;-69
2022/03/10 03:07:18;;;;;;;1.92;1.40;;;19.00;46.40;;;;;;6198356;28;20105;-69
2022/03/10 03:10:18;;;;;;;1.77;1.27;;;19.00;46.40;;;;;;6198057;28;20421;-69
2022/03/10 03:13:19;;;;;;;2.05;1.40;;;19.00;46.40;;;;;;6202266;28;20038;-69
2022/03/10 03:16:19;;;;;;;2.03;1.30;;;19.00;46.40;;;;;;6197670;28;20118;-69
2022/03/10 03:19:20;;;;;;;1.77;1.20;;;19.00;46.40;;;;;;6198500;28;20026;-69
2022/03/10 03:22:21;;;;;;;1.73;1.38;;;19.00;46.40;;;;;;6197734;28;20393;-69
2022/03/10 03:25:22;;;;;;;1.90;1.30;;;19.00;46.50;;;;;;6198043;28;20051;-69
2022/03/10 03:28:22;;;;;;;2.38;1.33;;;19.00;46.40;;;;;;6197510;28;20032;-69
2022/03/10 03:31:23;;;;;;;1.98;1.20;;;19.00;46.40;;;;;;6198117;28;20393;-69
2022/03/10 03:34:23;;;;;;;2.38;1.35;;;19.00;46.40;;;;;;6196326;28;20072;-69
2022/03/10 03:37:24;;;;;;;2.38;0.93;;;19.00;46.50;;;;;;6197703;28;20026;-69
2022/03/10 03:40:24;;;;;;;1.90;1.38;;;19.00;46.50;;;;;;6197440;28;20026;-69
2022/03/10 03:43:25;;;;;;;2.35;1.63;;;19.00;46.50;;;;;;6197488;28;20513;-69
2022/03/10 03:46:26;;;;;;;1.70;1.30;;;19.00;46.40;;;;;;6197177;28;20027;-69
2022/03/10 03:49:26;;;;;;;1.65;1.30;;;19.00;46.40;;;;;;6197386;28;20065;-69
2022/03/10 03:52:27;;;;;;;2.35;1.52;;;19.00;46.40;;;;;;6196881;28;20058;-69
2022/03/10 03:55:27;;;;;;;2.47;1.50;;;19.00;46.40;;;;;;6197248;28;20414;-69
2022/03/10 03:58:28;;;;;;;2.15;1.50;;;19.00;46.40;;;;;;6197037;28;20556;-69
2022/03/10 04:01:28;;;;;;;2.95;1.52;;;19.00;46.40;;;;;;6197224;28;20071;-69
2022/03/10 04:04:29;;;;;;;1.90;1.05;;;19.00;46.40;;;;;;6196863;28;20474;-69
2022/03/10 04:07:30;;;;;;;1.75;1.40;;;19.00;46.50;;;;;;6196979;28;20030;-69
2022/03/10 04:10:31;;;;;;;2.00;1.50;;;19.00;46.50;;;;;;6196538;28;20027;-69
2022/03/10 04:13:32;;;;;;;2.88;1.60;;;19.00;46.50;;;;;;6196963;28;20034;-69
2022/03/10 04:16:33;;;;;;;2.20;1.80;;;19.00;46.40;;;;;;6196529;28;20374;-69
2022/03/10 04:19:33;;;;;;;2.42;1.40;;;19.00;46.40;;;;;;6196590;28;20033;-69
2022/03/10 04:22:34;;;;;;;2.83;1.60;;;19.00;46.50;;;;;;6200424;28;20034;-69
2022/03/10 04:25:34;;;;;;;2.05;1.50;;;19.00;47.10;;;;;;6196324;28;20096;-69
2022/03/10 04:28:35;;;;;;;2.58;1.50;;;19.00;46.40;;;;;;6196188;28;20113;-69
2022/03/10 04:31:35;;;;;;;2.25;1.65;;;19.00;46.50;;;;;;6196834;28;20551;-69
2022/03/10 04:34:36;;;;;;;2.85;1.70;;;19.00;46.40;;;;;;6196103;28;20038;-70
2022/03/10 04:37:36;;;;;;;2.40;1.67;;;19.00;46.40;;;;;;6196274;28;20042;-69
2022/03/10 04:40:37;;;;;;;2.45;1.58;;;19.00;46.40;;;;;;6195948;28;20065;-69
2022/03/10 04:43:38;;;;;;;2.03;1.42;;;19.00;46.40;;;;;;6196464;28;20037;-69
2022/03/10 04:46:39;;;;;;;2.05;1.42;;;19.00;46.50;;;;;;6195757;28;20097;-69
2022/03/10 04:49:39;;;;;;;2.65;1.70;;;19.00;46.50;;;;;;6195933;28;20573;-69
2022/03/10 04:52:41;;;;;;;2.20;1.48;;;19.00;46.40;;;;;;6195495;28;20057;-69
2022/03/10 04:55:41;;;;;;;2.70;1.60;;;19.00;46.50;;;;;;6195852;28;20098;-69
2022/03/10 04:58:41;;;;;;;2.90;1.67;;;19.00;46.50;;;;;;6195311;28;20030;-69
2022/03/10 05:01:42;;;;;;;2.25;1.58;;;19.00;46.40;;;;;;6195711;28;20030;-69
2022/03/10 05:04:43;;;;;;;3.00;1.50;;;19.00;46.40;;;;;;6195504;28;20398;-69
2022/03/10 05:07:44;;;;;;;2.85;1.70;;;19.00;46.50;;;;;;6195481;28;20037;-69
2022/03/10 05:10:45;;;;;;;2.10;1.70;;;19.00;46.40;;;;;;6195282;28;20097;-69
2022/03/10 05:13:45;;;;;;;3.10;1.73;;;19.00;46.40;;;;;;6195378;28;20052;-69
2022/03/10 05:16:45;;;;;;;3.17;1.63;;;19.00;46.40;;;;;;6195088;28;20030;-69
2022/03/10 05:19:46;;;;;;;2.13;1.42;;;19.00;46.50;;;;;;6195181;28;20114;-68
2022/03/10 05:22:52;;;;;;;2.33;1.58;;;19.00;46.40;;;;;;6195426;28;20433;-69
2022/03/10 05:25:52;;;;;;;2.15;1.58;;;19.00;46.40;;;;;;6197079;28;20440;-69
2022/03/10 05:28:52;;;;;;;3.33;1.92;;;19.00;46.40;;;;;;6194924;28;20130;-69
2022/03/10 05:31:53;;;;;;;2.42;1.63;;;19.00;46.40;;;;;;6198753;28;20036;-69
2022/03/10 05:34:54;;;;;;;2.47;1.63;;;19.00;46.30;;;;;;6195010;28;20031;-69
2022/03/10 05:37:56;;;;;;;3.65;1.83;;;19.00;46.30;;;;;;6194783;28;20036;-69
2022/03/10 05:40:57;;;;;;;3.25;1.90;;;19.00;46.40;;;;;;6194802;28;20034;-69
2022/03/10 05:43:57;;;;;;;2.63;1.70;;;19.00;46.30;;;;;;6194679;28;20034;-69
2022/03/10 05:46:58;;;;;;;2.55;1.70;;;19.00;46.30;;;;;;6194981;28;20034;-69
2022/03/10 05:49:58;;;;;;;3.50;1.95;;;19.00;46.30;;;;;;6194518;28;20026;-69
2022/03/10 05:53:00;;;;;;;2.75;1.70;;;19.00;46.30;;;;;;6194378;28;20038;-69
2022/03/10 05:56:00;;;;;;;2.70;1.80;;;19.00;46.30;;;;;;6194649;28;20084;-69
2022/03/10 05:59:01;;;;;;;2.75;1.45;;;19.00;46.30;;;;;;6194088;28;20034;-69
2022/03/10 06:02:01;;;;;;;2.95;1.90;;;19.00;46.30;;;;;;6192790;28;20307;-69
2022/03/10 06:05:03;;;;;;;3.13;1.90;;;19.00;46.30;;;;;;6194953;28;20501;-69
2022/03/10 06:08:04;;;;;;;3.00;1.90;;;19.10;46.40;;;;;;6194510;28;20437;-69
2022/03/10 06:11:07;;;;;;;2.58;1.63;;;19.00;46.30;;;;;;6194589;28;20062;-69
2022/03/10 06:14:07;;;;;;;2.53;1.83;;;19.10;46.30;;;;;;6194316;28;20104;-69
2022/03/10 06:17:08;;;;;;;3.10;1.92;;;19.10;46.30;;;;;;6194596;28;20026;-69
2022/03/10 06:20:09;;;;;;;2.80;2.00;;;19.10;46.30;;;;;;6194277;28;20034;-69
2022/03/10 06:23:09;;;;;;;2.58;1.88;;;19.10;46.30;;;;;;6194437;28;20023;-68
2022/03/10 06:26:10;;;;;;;2.45;1.77;;;19.10;46.30;;;;;;6193770;28;20524;-69
2022/03/10 06:29:12;;;;;;;3.03;2.08;;;19.00;46.30;;;;;;6194836;28;20023;-69
2022/03/10 06:32:15;;;;;;;3.00;1.92;;;19.00;46.30;;;;;;6194259;28;20117;-69
2022/03/10 06:35:16;;;;;;;3.00;1.90;;;19.00;46.30;;;;;;6194333;28;20106;-69
2022/03/10 06:38:17;;;;;;;4.93;2.15;;;19.00;46.20;;;;;;6197982;28;20112;-69
2022/03/10 06:41:18;;;;;;;2.63;1.67;;;19.10;46.30;;;;;;6194163;28;20030;-69
2022/03/10 06:44:18;;;;;;;2.30;1.80;;;19.10;46.30;;;;;;6187276;28;20030;-69
2022/03/10 06:47:19;;;;;;;4.22;2.00;;;19.10;46.30;;;;;;6189773;28;20363;-69
2022/03/10 06:50:20;;;;;;;3.35;2.17;;;19.10;46.30;;;;;;6192177;28;20054;-69
2022/03/10 06:53:20;;;;;;;2.97;1.80;;;19.10;46.30;;;;;;6192407;28;20030;-69
2022/03/10 06:56:21;;;;;;;2.67;1.80;;;19.10;46.30;;;;;;6192270;28;20031;-69
2022/03/10 06:59:21;;;;;;;2.80;1.80;;;19.10;46.30;;;;;;6191123;28;20524;-69
2022/03/10 07:02:23;;;;;;;3.60;1.95;;;19.10;46.30;;;;;;6195849;28;20081;-69
2022/03/10 07:05:24;;;;;;;2.70;1.83;;;19.10;47.00;;;;;;6212553;28;20077;-70
2022/03/10 07:08:24;;;;;;;4.38;2.33;;;19.10;46.30;;;;;;6201307;28;20019;-69
2022/03/10 07:11:25;;;;;;;3.50;2.33;;;19.10;46.30;;;;;;6199441;28;20027;-69
2022/03/10 07:14:26;;;;;;;3.13;2.05;;;19.10;46.30;;;;;;6200867;28;20030;-69
2022/03/10 07:17:27;;;;;;;3.75;2.05;;;19.10;46.30;;;;;;6199433;28;20508;-68
2022/03/10 07:20:27;;;;;;;3.88;1.95;;;19.10;46.30;;;;;;6199099;28;20026;-69
2022/03/10 07:23:28;;;;;;;2.90;1.88;;;19.10;46.30;;;;;;6199619;28;20528;-69
2022/03/10 07:26:28;;;;;;;3.35;1.85;;;19.10;46.30;;;;;;6199303;28;20125;-69
2022/03/10 07:29:29;;;;;;;3.47;2.10;;;19.10;46.30;;;;;;6199141;28;20497;-69
2022/03/10 07:32:30;;;;;;;3.38;2.00;;;19.10;46.30;;;;;;6199479;28;20053;-69
2022/03/10 07:35:30;;;;;;;3.47;2.10;;;19.10;46.30;;;;;;6199225;28;20039;-69
2022/03/10 07:38:31;;;;;;;3.28;2.30;;;19.10;46.30;;;;;;6198550;28;20033;-69
2022/03/10 07:41:31;;;;;;;4.72;2.55;;;19.10;46.30;;;;;;6202766;28;20049;-69
2022/03/10 07:44:32;;;;;;;4.45;2.40;;;19.10;46.30;;;;;;6198648;28;20552;-69
2022/03/10 07:47:32;;;;;;;3.83;2.22;;;19.10;46.30;;;;;;6198957;28;20062;-69
2022/03/10 07:50:33;;;;;;;2.30;1.70;;;19.10;46.30;;;;;;6198407;28;20108;-69
2022/03/10 07:53:33;;;;;;;3.22;2.20;;;19.10;46.30;;;;;;6198609;28;20413;-69
2022/03/10 07:56:34;;;;;;;2.63;1.73;;;19.10;46.30;;;;;;6198732;28;20022;-69
2022/03/10 07:59:35;;;;;;;3.67;2.20;;;19.10;46.30;;;;;;6198970;28;20030;-69
2022/03/10 08:02:36;;;;;;;3.05;1.95;;;19.10;46.30;;;;;;6199012;28;20465;-69
2022/03/10 08:05:37;;;;;;;3.90;2.35;;;19.10;46.30;;;;;;6198260;28;20026;-69
2022/03/10 08:08:38;;;;;;;3.55;2.40;;;19.10;46.30;;;;;;6199010;28;20026;-69
2022/03/10 08:11:39;;;;;;;3.55;2.20;;;19.10;46.30;;;;;;6197971;28;20033;-69
2022/03/10 08:14:40;;;;;;;3.25;2.15;;;19.10;46.30;;;;;;6197754;28;20042;-69
2022/03/10 08:17:40;;;;;;;3.38;2.08;;;19.10;46.30;;;;;;6197080;28;20030;-70
2022/03/10 08:20:41;;;;;;;3.20;2.22;;;19.10;46.30;;;;;;6197387;28;20060;-69
2022/03/10 08:23:42;;;;;;;6.30;2.53;;;19.10;46.30;;;;;;6198767;28;20034;-69
2022/03/10 08:26:43;;;;;;;3.63;2.00;;;19.10;46.30;;;;;;6197137;28;20053;-69
2022/03/10 08:29:44;;;;;;;4.30;2.10;;;19.10;46.30;;;;;;6197796;28;20068;-69
2022/03/10 08:32:45;;;;;;;3.45;2.30;;;19.10;46.30;;;;;;6197709;28;20378;-69
2022/03/10 08:35:46;;;;;;;3.00;2.00;;;19.10;46.30;;;;;;6197518;28;20058;-69
2022/03/10 08:38:47;;;;;;;3.60;2.40;;;19.10;46.30;;;;;;6198561;28;20149;-69
2022/03/10 08:41:49;;;;;;;3.35;2.25;;;19.10;46.30;;;;;;6197506;28;20022;-69
2022/03/10 08:44:50;;;;;;;5.18;2.30;;;19.10;46.30;;;;;;6197902;28;20544;-69
2022/03/10 08:47:51;;;;;;;5.10;2.53;;;19.10;46.30;;;;;;6197727;28;20022;-69
2022/03/10 08:50:51;;;;;;;5.63;2.80;;;19.10;46.30;;;;;;6196297;28;20509;-69
2022/03/10 08:53:52;;;;;;;3.67;2.35;;;19.10;46.30;;;;;;6197254;28;20045;-69
2022/03/10 08:56:52;;;;;;;4.32;2.70;;;19.10;46.30;;;;;;6197356;28;20165;-69
2022/03/10 08:59:53;;;;;;;3.55;2.30;;;19.10;46.20;;;;;;6196930;28;20038;-69
2022/03/10 09:02:53;;;;;;;4.22;2.40;;;19.10;46.30;;;;;;6196089;28;20394;-69
2022/03/10 09:05:54;;;;;;;5.10;2.53;;;19.10;46.30;;;;;;6197084;28;20068;-69
2022/03/10 09:08:55;;;;;;;3.90;2.45;;;19.10;46.30;;;;;;6197213;28;20157;-69
2022/03/10 09:11:56;;;;;;;4.20;2.35;;;19.10;46.20;;;;;;6197345;28;20040;-69
2022/03/10 09:14:57;;;;;;;3.97;2.45;;;19.10;46.20;;;;;;6197503;28;20054;-69
2022/03/10 09:17:57;;;;;;;5.43;2.75;;;19.10;46.20;;;;;;6196973;28;20030;-69
2022/03/10 09:20:58;;;;;;;3.50;2.40;;;19.10;46.30;;;;;;6196785;28;20105;-69
2022/03/10 09:23:58;;;;;;;5.18;2.70;;;19.10;46.20;;;;;;6197080;28;20477;-69
2022/03/10 09:26:59;;;;;;;4.95;2.85;;;19.10;46.30;;;;;;6196757;28;20058;-69
2022/03/10 09:29:59;;;;;;;4.40;2.28;;;19.10;46.30;;;;;;6196596;28;20034;-69
2022/03/10 09:33:01;;;;;;;4.93;2.88;;;19.10;46.30;;;;;;6196188;28;20121;-69
2022/03/10 09:36:02;;;;;;;3.40;2.22;;;19.10;46.30;;;;;;6194729;28;20073;-69
2022/03/10 09:39:02;;;;;;;4.30;2.80;;;19.10;46.20;;;;;;6195070;28;20022;-69
2022/03/10 09:42:05;;;;;;;4.07;2.67;;;19.10;46.20;;;;;;6196241;28;20397;-69
2022/03/10 09:45:08;;;;;;;4.53;2.65;;;19.10;46.20;;;;;;6196447;28;20018;-69
2022/03/10 09:48:09;;;;;;;3.85;2.65;;;19.10;46.20;;;;;;6196142;28;20041;-69
2022/03/10 09:51:10;;;;;;;3.80;2.42;;;19.10;46.20;;;;;;6196081;28;20508;-69
2022/03/10 09:54:11;;;;;;;4.88;2.20;;;19.10;46.30;;;;;;6196578;28;20042;-69
2022/03/10 09:57:15;;;;;;;5.53;2.80;;;19.10;46.20;;;;;;6197183;28;20031;-69
2022/03/10 10:00:17;;;;;;;5.32;3.08;;;19.10;46.20;;;;;;6196657;28;20393;-69
2022/03/10 10:03:18;;;;;;;4.88;2.78;;;19.10;46.20;;;;;;6196059;28;20022;-69
2022/03/10 10:06:19;;;;;;;4.78;3.05;;;19.10;46.20;;;;;;6196316;28;20089;-69
2022/03/10 10:09:20;;;;;;;4.10;2.70;;;19.10;46.20;;;;;;6196039;28;20027;-69
2022/03/10 10:12:28;;;;;;;4.22;2.45;;;19.10;46.30;;;;;;6195874;28;20071;-69
2022/03/10 10:15:36;;;;;;;3.53;2.35;;;19.10;46.20;;;;;;6196524;28;20066;-69
2022/03/10 10:18:39;;;;;;;3.88;2.53;;;19.10;46.30;;;;;;6196174;28;20106;-68
2022/03/10 10:21:39;;;;;;;3.33;2.17;;;19.10;46.30;;;;;;6195666;28;20019;-69
2022/03/10 10:24:48;;;;;;;4.55;2.67;;;19.10;46.30;;;;;;6196207;28;20456;-69
2022/03/10 10:27:49;;;;;;;5.15;2.80;;;19.10;46.30;;;;;;6195624;28;20030;-69
2022/03/10 10:30:58;;;;;;;3.90;2.50;;;19.10;46.30;;;;;;6195992;28;20053;-69
2022/03/10 10:34:01;;;;;;;3.20;2.28;;;19.10;46.30;;;;;;6195634;28;20392;-69
2022/03/10 10:37:02;;;;;;;4.45;2.78;;;19.10;46.30;;;;;;6196418;28;20025;-69
2022/03/10 10:40:04;;;;;;;3.47;2.40;;;19.10;46.30;;;;;;6195895;28;20371;-69
2022/03/10 10:43:07;;;;;;;3.50;2.80;;;19.10;46.30;;;;;;6194700;28;20037;-69
2022/03/10 10:46:07;;;;;;;3.80;2.20;;;19.10;46.30;;;;;;6200170;28;20034;-70
2022/03/10 10:49:16;;;;;;;3.55;2.42;;;19.10;46.30;;;;;;6200349;28;20034;-69
2022/03/10 10:52:17;;;;;;;4.70;2.53;;;19.10;46.30;;;;;;6200363;28;20035;-69
2022/03/10 10:55:17;;;;;;;3.58;2.40;;;19.10;46.30;;;;;;6200283;28;20092;-69
2022/03/10 10:58:23;;;;;;;5.05;2.40;;;19.10;46.30;;;;;;6200516;28;20059;-69
2022/03/10 11:01:29;;;;;;;4.55;2.78;;;19.10;46.30;;;;;;6200019;28;20486;-69
2022/03/10 11:04:31;;;;;;;3.97;2.55;;;19.10;46.30;;;;;;6200296;28;20018;-70
2022/03/10 11:07:32;;;;;;;3.97;2.47;;;19.10;46.30;;;;;;6200205;28;20084;-69
2022/03/10 11:10:32;;;;;;;4.85;2.80;;;19.10;46.30;;;;;;6200133;28;20481;-69
2022/03/10 11:13:33;;;;;;;4.07;2.50;;;19.10;46.30;;;;;;6199645;28;20069;-69
2022/03/10 11:16:34;;;;;;;7.00;2.47;;;19.10;46.30;;;;;;6199412;28;20034;-69
2022/03/10 11:19:38;;;;;;;4.72;2.80;;;19.10;46.30;;;;;;6199970;28;20413;-69
2022/03/10 11:23:06;;;;;;;5.32;2.80;;;19.10;46.30;;;;;;6199736;28;20034;-69
2022/03/10 11:26:12;;;;;;;4.32;2.50;;;19.10;46.30;;;;;;6199452;28;20062;-69
2022/03/10 11:29:21;;;;;;;3.58;2.25;;;19.10;46.30;;;;;;6199379;28;20022;-69
2022/03/10 11:32:29;;;;;;;4.20;2.55;;;19.10;46.30;;;;;;6199004;28;20034;-69
2022/03/10 11:35:39;;;;;;;3.42;2.30;;;19.10;46.30;;;;;;6199607;28;20022;-69
2022/03/10 11:39:03;;;;;;;4.07;2.40;;;19.10;46.70;;;;;;6201170;28;20034;-69
2022/03/10 11:42:23;;;;;;;3.92;2.60;;;19.10;46.30;;;;;;6199567;28;20022;-70
2022/03/10 11:45:29;;;;;;;4.30;2.35;;;19.10;46.30;;;;;;6198330;28;20032;-69
2022/03/10 11:48:29;;;;;;;;;;;19.10;46.30;;;;;;6199483;28;20070;-69
2022/03/10 11:51:42;;;;;;;4.75;2.80;;;19.10;46.30;;;;;;6198169;28;19933;-69
2022/03/10 11:55:05;;;;;;;4.38;2.65;;;19.10;46.30;;;;;;6198013;28;20053;-70
2022/03/10 11:58:08;;;;;;;5.35;2.50;;;19.10;46.30;;;;;;6198862;28;20029;-69
2022/03/10 12:01:18;;;;;;;4.50;2.50;;;19.10;46.30;;;;;;6198644;28;20121;-69
2022/03/10 12:04:23;;;;;;;3.80;2.40;;;19.10;46.30;;;;;;6199030;28;20417;-69
2022/03/10 12:07:29;;;;;;;4.45;2.45;;;19.10;46.30;;;;;;6198573;28;20508;-69
2022/03/10 12:10:40;;;;;;;5.25;2.55;;;19.10;46.30;;;;;;6198735;28;20030;-69
2022/03/10 12:13:46;;;;;;;3.70;2.28;;;19.10;46.30;;;;;;6198896;28;20038;-69
2022/03/10 12:16:47;;;;;;;3.67;2.42;;;19.10;46.30;;;;;;6198336;28;20062;-68
2022/03/10 12:20:11;;;;;;;5.10;2.78;;;19.10;46.30;;;;;;6198818;28;20035;-69
2022/03/10 12:23:15;;;;;;;4.18;2.38;;;19.10;46.30;;;;;;6199003;28;20034;-69
2022/03/10 12:26:30;;;;;;;5.05;2.60;;;19.10;46.30;;;;;;6197448;28;20046;-69
2022/03/10 12:29:34;;;;;;;4.00;2.58;;;19.10;46.20;;;;;;6198054;28;20026;-69
2022/03/10 12:32:37;;;;;;;4.15;2.83;;;19.10;46.30;;;;;;6197872;28;20042;-69
2022/03/10 12:35:40;;;;;;;4.28;2.65;;;19.10;46.20;;;;;;6197748;28;20502;-68
2022/03/10 12:38:46;;;;;;;3.83;2.42;;;19.10;46.20;;;;;;6197588;28;20113;-69
2022/03/10 12:41:48;;;;;;;;;;;19.10;46.20;;;;;;6197694;28;20222;-69
2022/03/10 12:44:49;;;;;;;3.75;2.45;;;19.10;46.30;;;;;;6198046;28;20415;-69
2022/03/10 12:48:12;;;;;;;5.55;2.63;;;19.10;46.30;;;;;;6197393;28;20251;-69
2022/03/10 12:51:33;;;;;;;3.97;2.38;;;19.10;46.30;;;;;;6197300;28;20397;-69
2022/03/10 12:54:37;;;;;;;4.32;2.35;;;19.10;46.30;;;;;;6197451;28;20497;-69
2022/03/10 12:57:38;;;;;;;4.22;2.28;;;19.10;46.30;;;;;;6197212;28;20049;-69
2022/03/10 13:00:40;;;;;;;3.88;2.28;;;19.10;47.00;;;;;;6197145;28;20477;-69
2022/03/10 13:03:54;;;;;;;3.95;2.40;;;19.10;46.30;;;;;;6197236;28;20084;-69
2022/03/10 13:06:59;;;;;;;4.60;2.65;;;19.10;46.20;;;;;;6196863;28;20033;-69
2022/03/10 13:10:06;;;;;;;4.30;2.47;;;19.10;46.30;;;;;;6197262;28;20037;-69
2022/03/10 13:13:07;;;;;;;3.58;2.25;;;19.10;46.30;;;;;;6196882;28;20504;-69
2022/03/10 13:16:07;;;;;;;3.97;2.58;;;19.10;46.30;;;;;;6197256;28;20042;-69
2022/03/10 13:19:18;;;;;;;3.33;2.15;;;19.10;46.20;;;;;;6196541;28;20031;-69
2022/03/10 13:22:19;;;;;;;3.65;2.40;;;19.10;46.20;;;;;;6197030;28;20022;-69
2022/03/10 13:25:22;;;;;;;4.03;2.25;;;19.10;46.30;;;;;;6196359;28;20124;-69
2022/03/10 13:28:27;;;;;;;4.22;2.45;;;19.10;46.30;;;;;;6197023;28;20145;-69
2022/03/10 13:31:31;;;;;;;4.53;2.60;;;19.10;46.30;;;;;;6195236;28;20077;-69
2022/03/10 13:34:32;;;;;;;3.88;2.70;;;19.10;46.30;;;;;;6196547;28;20031;-69
2022/03/10 13:37:33;;;;;;;3.03;2.15;;;19.10;46.30;;;;;;6197030;28;20030;-69
2022/03/10 13:40:35;;;;;;;5.20;2.58;;;19.10;46.30;;;;;;6196435;28;20521;-69
2022/03/10 13:43:37;;;;;;;3.72;2.30;;;19.10;46.30;;;;;;6196017;28;20445;-69
2022/03/10 13:46:37;;;;;;;4.00;2.58;;;19.10;46.30;;;;;;6196551;28;20031;-69
2022/03/10 13:49:43;;;;;;;3.58;2.15;;;19.10;46.30;;;;;;6196536;28;20121;-69
2022/03/10 13:52:44;;;;;;;3.05;2.30;;;19.10;46.30;;;;;;6195856;28;20077;-69
2022/03/10 13:55:49;;;;;;;2.95;1.98;;;19.10;46.30;;;;;;6196277;28;20476;-69
2022/03/10 13:58:50;;;;;;;4.03;2.53;;;19.10;46.30;;;;;;6196131;28;20464;-69
2022/03/10 14:01:50;;;;;;;3.72;2.53;;;19.10;46.30;;;;;;6196421;28;20024;-69
2022/03/10 14:04:52;;;;;;;4.00;2.30;;;19.10;46.30;;;;;;6196353;28;20436;-69
2022/03/10 14:08:11;;;;;;;3.67;2.20;;;19.10;46.30;;;;;;6196379;28;20082;-69
2022/03/10 14:11:12;;;;;;;3.90;2.30;;;19.10;46.30;;;;;;6196374;28;20019;-69
2022/03/10 14:14:12;;;;;;;4.28;2.42;;;19.10;46.30;;;;;;6195316;28;20045;-69
2022/03/10 14:17:13;;;;;;;3.70;2.67;;;19.10;46.30;;;;;;6196516;28;20050;-69
2022/03/10 14:20:14;;;;;;;3.85;2.42;;;19.10;46.30;;;;;;6200398;28;20018;-70
2022/03/10 14:23:19;;;;;;;4.13;2.30;;;19.10;46.30;;;;;;6200789;28;20022;-69
2022/03/10 14:26:20;;;;;;;4.38;2.20;;;19.10;46.30;;;;;;6200288;28;20157;-69
2022/03/10 14:29:21;;;;;;;3.17;2.20;;;19.10;46.30;;;;;;6200954;28;20038;-69
2022/03/10 14:32:23;;;;;;;3.22;2.17;;;19.10;46.30;;;;;;6200726;28;20113;-69
2022/03/10 14:35:24;;;;;;;3.33;2.22;;;19.10;46.30;;;;;;6200767;28;20022;-70
2022/03/10 14:38:25;;;;;;;2.92;2.30;;;19.10;46.30;;;;;;6200534;28;20181;-69
2022/03/10 14:41:28;;;;;;;3.60;2.40;;;19.10;46.30;;;;;;6200710;28;20397;-69
2022/03/10 14:44:29;;;;;;;3.53;2.20;;;19.10;46.30;;;;;;6200190;28;20066;-69
2022/03/10 14:47:29;;;;;;;3.42;2.30;;;19.10;46.30;;;;;;6200721;28;20440;-69
2022/03/10 14:50:30;;;;;;;3.67;2.40;;;19.10;46.30;;;;;;6200036;28;20034;-69
2022/03/10 14:53:31;;;;;;;2.97;2.10;;;19.10;46.30;;;;;;6200353;28;20046;-69
2022/03/10 14:56:33;;;;;;;3.22;2.30;;;19.10;46.30;;;;;;6200458;28;20437;-69
2022/03/10 14:59:33;;;;;;;2.40;1.80;;;19.20;46.30;;;;;;6200695;28;20056;-69
2022/03/10 15:02:35;;;;;;;4.72;2.55;;;19.10;46.30;;;;;;6199949;28;20587;-69
2022/03/10 15:05:37;;;;;;;3.63;2.22;;;19.10;46.30;;;;;;6200337;28;20072;-69
2022/03/10 15:08:37;;;;;;;3.58;2.15;;;19.10;46.30;;;;;;6199963;28;20026;-69
2022/03/10 15:11:38;;;;;;;2.65;1.80;;;19.10;46.30;;;;;;6204184;28;20045;-69
2022/03/10 15:14:38;;;;;;;3.22;2.10;;;19.10;46.30;;;;;;6199902;28;20113;-69
2022/03/10 15:17:40;;;;;;;3.00;1.85;;;19.10;46.30;;;;;;6200013;28;20041;-69
2022/03/10 15:20:40;;;;;;;2.70;1.95;;;19.10;46.30;;;;;;6200111;28;20080;-69
2022/03/10 15:23:45;;;;;;;3.05;2.08;;;19.10;46.30;;;;;;6199903;28;20433;-69
2022/03/10 15:26:45;;;;;;;3.83;2.35;;;19.10;46.30;;;;;;6199275;28;20043;-69
2022/03/10 15:29:46;;;;;;;3.15;2.17;;;19.10;46.30;;;;;;6199528;28;20143;-69
2022/03/10 15:32:46;;;;;;;3.80;2.30;;;19.10;46.30;;;;;;6200174;28;20604;-70
2022/03/10 15:35:47;;;;;;;3.80;2.17;;;19.10;46.30;;;;;;6199416;28;20516;-69
2022/03/10 15:38:52;;;;;;;3.25;2.00;;;19.10;46.30;;;;;;6197943;28;20022;-69
2022/03/10 15:41:55;;;;;;;2.95;2.10;;;19.10;46.30;;;;;;6199356;28;20358;-69
2022/03/10 15:44:57;;;;;;;2.72;2.05;;;19.10;46.30;;;;;;6184866;28;20078;-69
2022/03/10 15:47:59;;;;;;;3.00;2.05;;;19.10;46.30;;;;;;6195148;28;20092;-69
2022/03/10 15:51:00;;;;;;;4.47;2.70;;;19.10;46.30;;;;;;6199538;28;20022;-69
2022/03/10 15:54:01;;;;;;;2.80;1.77;;;19.10;46.10;;;;;;6196837;28;20088;-69
2022/03/10 15:57:02;;;;;;;3.33;2.10;;;19.10;46.20;;;;;;6196907;28;20014;-68